sensor_id;sensor_type;location;lat;lon;timestamp;pressure;altitude;pressure_sealevel;temperature;humidity
3206;BME280;1615;53.602;11.418;2022-08-03T00:01:42;101109.66;;;23.04;99.51
3206;BME280;1615;53.602;11.418;2022-08-03T00:04:08;101110.25;;;22.94;100.00
3206;BME280;1615;53.602;11.418;2022-08-03T00:06:34;101112.50;;;22.88;100.00
3206;BME280;1615;53.602;11.418;2022-08-03T00:09:00;101111.78;;;22.91;100.00
3206;BME280;1615;53.602;11.418;2022-08-03T00:11:25;101014.78;;;22.23;100.00
3206;BME280;1615;53.602;11.418;2022-08-03T00:13:51;101099.31;;;22.70;100.00
3206;BME280;1615;53.602;11.418;2022-08-03T00:16:17;101102.72;;;22.79;100.00
3206;BME280;1615;53.602;11.418;2022-08-03T00:18:42;101104.63;;;22.75;100.00
3206;BME280;1615;53.602;11.418;2022-08-03T00:21:08;101109.78;;;22.73;100.00
3206;BME280;1615;53.602;11.418;2022-08-03T00:23:34;101111.41;;;22.74;100.00
3206;BME280;1615;53.602;11.418;2022-08-03T00:25:59;101103.44;;;22.76;100.00
3206;BME280;1615;53.602;11.418;2022-08-03T00:28:25;101035.38;;;22.34;100.00
3206;BME280;1615;53.602;11.418;2022-08-03T00:30:50;101107.28;;;22.68;100.00
3206;BME280;1615;53.602;11.418;2022-08-03T00:33:15;101033.63;;;22.26;100.00
3206;BME280;1615;53.602;11.418;2022-08-03T00:35:41;101000.34;;;22.02;100.00
3206;BME280;1615;53.602;11.418;2022-08-03T00:38:06;101104.47;;;22.68;100.00
3206;BME280;1615;53.602;11.418;2022-08-03T00:40:32;101098.88;;;22.68;100.00
3206;BME280;1615;53.602;11.418;2022-08-03T00:43:00;101056.31;;;22.40;100.00
3206;BME280;1615;53.602;11.418;2022-08-03T00:45:28;101095.34;;;22.71;100.00
3206;BME280;1615;53.602;11.418;2022-08-03T00:47:54;101101.75;;;22.71;100.00
3206;BME280;1615;53.602;11.418;2022-08-03T00:50:22;101099.78;;;22.72;100.00
3206;BME280;1615;53.602;11.418;2022-08-03T00:52:48;101099.47;;;22.77;100.00
3206;BME280;1615;53.602;11.418;2022-08-03T00:55:15;101088.16;;;22.89;100.00
3206;BME280;1615;53.602;11.418;2022-08-03T00:57:41;101064.22;;;22.72;100.00
3206;BME280;1615;53.602;11.418;2022-08-03T01:00:09;101088.88;;;22.67;100.00
3206;BME280;1615;53.602;11.418;2022-08-03T01:02:36;101084.00;;;22.64;100.00
3206;BME280;1615;53.602;11.418;2022-08-03T01:05:02;101080.94;;;22.69;100.00
3206;BME280;1615;53.602;11.418;2022-08-03T01:08:18;101089.16;;;22.62;100.00
3206;BME280;1615;53.602;11.418;2022-08-03T01:16:18;101083.47;;;22.58;100.00
3206;BME280;1615;53.602;11.418;2022-08-03T01:19:19;101081.50;;;22.59;100.00
3206;BME280;1615;53.602;11.418;2022-08-03T01:22:34;101086.94;;;22.52;100.00
3206;BME280;1615;53.602;11.418;2022-08-03T01:30:08;101082.97;;;22.53;100.00
3206;BME280;1615;53.602;11.418;2022-08-03T01:32:40;101076.13;;;22.50;100.00
3206;BME280;1615;53.602;11.418;2022-08-03T01:35:10;101073.88;;;22.40;100.00
3206;BME280;1615;53.602;11.418;2022-08-03T01:37:47;101078.66;;;22.40;100.00
3206;BME280;1615;53.602;11.418;2022-08-03T01:40:14;101089.09;;;22.43;100.00
3206;BME280;1615;53.602;11.418;2022-08-03T01:42:40;101087.16;;;22.28;100.00
3206;BME280;1615;53.602;11.418;2022-08-03T01:45:09;101080.69;;;22.24;100.00
3206;BME280;1615;53.602;11.418;2022-08-03T01:47:37;101076.09;;;22.16;100.00
3206;BME280;1615;53.602;11.418;2022-08-03T01:50:04;101071.13;;;22.25;100.00
3206;BME280;1615;53.602;11.418;2022-08-03T01:52:31;101075.09;;;22.24;100.00
3206;BME280;1615;53.602;11.418;2022-08-03T01:54:57;101081.25;;;22.14;100.00
3206;BME280;1615;53.602;11.418;2022-08-03T01:57:24;101034.25;;;21.85;100.00
3206;BME280;1615;53.602;11.418;2022-08-03T01:59:54;101070.06;;;22.14;100.00
3206;BME280;1615;53.602;11.418;2022-08-03T02:02:20;101069.25;;;22.13;100.00
3206;BME280;1615;53.602;11.418;2022-08-03T02:04:46;101021.75;;;21.79;100.00
3206;BME280;1615;53.602;11.418;2022-08-03T02:07:13;101076.72;;;22.09;100.00
3206;BME280;1615;53.602;11.418;2022-08-03T02:09:40;101040.38;;;21.75;100.00
3206;BME280;1615;53.602;11.418;2022-08-03T02:12:09;101062.59;;;22.02;100.00
3206;BME280;1615;53.602;11.418;2022-08-03T02:14:37;101070.53;;;22.00;100.00
3206;BME280;1615;53.602;11.418;2022-08-03T02:17:04;101025.78;;;21.66;100.00
3206;BME280;1615;53.602;11.418;2022-08-03T02:19:32;100965.13;;;21.32;100.00
3206;BME280;1615;53.602;11.418;2022-08-03T02:21:58;101063.22;;;21.96;100.00
3206;BME280;1615;53.602;11.418;2022-08-03T02:24:23;101076.84;;;21.97;100.00
3206;BME280;1615;53.602;11.418;2022-08-03T02:26:52;101067.47;;;21.90;100.00
3206;BME280;1615;53.602;11.418;2022-08-03T02:29:21;101073.34;;;21.85;100.00
3206;BME280;1615;53.602;11.418;2022-08-03T02:31:48;101072.44;;;21.81;100.00
3206;BME280;1615;53.602;11.418;2022-08-03T02:34:16;101075.53;;;21.76;100.00
3206;BME280;1615;53.602;11.418;2022-08-03T02:36:45;101065.88;;;21.73;100.00
3206;BME280;1615;53.602;11.418;2022-08-03T02:39:12;101071.81;;;21.72;100.00
3206;BME280;1615;53.602;11.418;2022-08-03T02:41:42;101066.47;;;21.67;100.00
3206;BME280;1615;53.602;11.418;2022-08-03T02:44:11;101030.63;;;21.38;100.00
3206;BME280;1615;53.602;11.418;2022-08-03T02:46:40;101066.09;;;21.53;100.00
3206;BME280;1615;53.602;11.418;2022-08-03T02:49:07;101065.84;;;21.42;100.00
3206;BME280;1615;53.602;11.418;2022-08-03T02:51:35;101057.63;;;21.34;100.00
3206;BME280;1615;53.602;11.418;2022-08-03T02:54:02;101059.97;;;21.32;100.00
3206;BME280;1615;53.602;11.418;2022-08-03T02:56:28;100933.03;;;20.79;100.00
3206;BME280;1615;53.602;11.418;2022-08-03T02:58:57;101053.97;;;21.76;100.00
3206;BME280;1615;53.602;11.418;2022-08-03T03:01:24;100986.81;;;21.38;100.00
3206;BME280;1615;53.602;11.418;2022-08-03T03:03:52;101049.19;;;21.46;100.00
3206;BME280;1615;53.602;11.418;2022-08-03T03:06:19;101020.72;;;21.25;100.00
3206;BME280;1615;53.602;11.418;2022-08-03T03:08:46;101009.13;;;21.23;100.00
3206;BME280;1615;53.602;11.418;2022-08-03T03:11:13;101062.00;;;21.78;100.00
3206;BME280;1615;53.602;11.418;2022-08-03T03:13:41;101051.88;;;21.58;100.00
3206;BME280;1615;53.602;11.418;2022-08-03T03:16:07;101055.06;;;21.72;100.00
3206;BME280;1615;53.602;11.418;2022-08-03T03:18:33;101059.91;;;21.90;100.00
3206;BME280;1615;53.602;11.418;2022-08-03T03:21:00;101060.19;;;21.70;100.00
3206;BME280;1615;53.602;11.418;2022-08-03T03:23:27;101061.94;;;21.62;100.00
3206;BME280;1615;53.602;11.418;2022-08-03T03:25:54;101055.31;;;21.67;100.00
3206;BME280;1615;53.602;11.418;2022-08-03T03:28:22;101062.41;;;21.64;100.00
3206;BME280;1615;53.602;11.418;2022-08-03T03:30:48;101015.53;;;21.39;100.00
3206;BME280;1615;53.602;11.418;2022-08-03T03:33:13;101065.22;;;21.64;100.00
3206;BME280;1615;53.602;11.418;2022-08-03T03:35:40;101067.75;;;21.69;100.00
3206;BME280;1615;53.602;11.418;2022-08-03T03:38:06;101014.25;;;21.21;100.00
3206;BME280;1615;53.602;11.418;2022-08-03T03:40:33;100991.56;;;21.07;100.00
3206;BME280;1615;53.602;11.418;2022-08-03T03:42:58;101057.47;;;21.58;100.00
3206;BME280;1615;53.602;11.418;2022-08-03T03:45:25;101062.88;;;21.51;100.00
3206;BME280;1615;53.602;11.418;2022-08-03T03:47:51;101057.63;;;21.65;100.00
3206;BME280;1615;53.602;11.418;2022-08-03T03:50:17;101063.13;;;21.61;100.00
3206;BME280;1615;53.602;11.418;2022-08-03T03:52:44;101076.28;;;21.61;100.00
3206;BME280;1615;53.602;11.418;2022-08-03T03:55:14;101062.69;;;21.44;100.00
3206;BME280;1615;53.602;11.418;2022-08-03T03:57:40;101064.09;;;21.38;100.00
3206;BME280;1615;53.602;11.418;2022-08-03T04:00:06;101060.78;;;21.32;100.00
3206;BME280;1615;53.602;11.418;2022-08-03T04:02:31;101053.13;;;21.29;100.00
3206;BME280;1615;53.602;11.418;2022-08-03T04:04:56;101053.66;;;21.35;100.00
3206;BME280;1615;53.602;11.418;2022-08-03T04:08:13;101064.00;;;21.34;100.00
3206;BME280;1615;53.602;11.418;2022-08-03T04:11:11;101068.97;;;21.41;100.00
3206;BME280;1615;53.602;11.418;2022-08-03T04:14:08;101062.78;;;21.47;100.00
3206;BME280;1615;53.602;11.418;2022-08-03T04:16:37;101065.00;;;21.42;100.00
3206;BME280;1615;53.602;11.418;2022-08-03T04:19:46;101069.34;;;21.55;100.00
3206;BME280;1615;53.602;11.418;2022-08-03T04:22:17;101056.66;;;21.57;100.00
3206;BME280;1615;53.602;11.418;2022-08-03T04:24:50;101066.88;;;21.38;100.00
3206;BME280;1615;53.602;11.418;2022-08-03T04:27:20;101068.06;;;21.37;100.00
3206;BME280;1615;53.602;11.418;2022-08-03T04:29:48;101025.59;;;21.28;100.00
3206;BME280;1615;53.602;11.418;2022-08-03T04:32:15;101055.94;;;21.45;100.00
3206;BME280;1615;53.602;11.418;2022-08-03T04:34:41;101070.56;;;21.69;100.00
3206;BME280;1615;53.602;11.418;2022-08-03T04:37:11;101070.38;;;21.78;100.00
3206;BME280;1615;53.602;11.418;2022-08-03T04:39:41;101073.88;;;21.75;100.00
3206;BME280;1615;53.602;11.418;2022-08-03T04:42:08;101071.56;;;21.77;100.00
3206;BME280;1615;53.602;11.418;2022-08-03T04:44:38;101073.16;;;21.78;100.00
3206;BME280;1615;53.602;11.418;2022-08-03T04:47:04;101079.09;;;21.76;100.00
3206;BME280;1615;53.602;11.418;2022-08-03T04:49:30;101068.03;;;21.95;100.00
3206;BME280;1615;53.602;11.418;2022-08-03T04:51:56;101016.78;;;21.57;100.00
3206;BME280;1615;53.602;11.418;2022-08-03T04:54:21;101072.72;;;21.91;100.00
3206;BME280;1615;53.602;11.418;2022-08-03T04:56:46;101074.31;;;22.08;100.00
3206;BME280;1615;53.602;11.418;2022-08-03T04:59:12;101072.75;;;22.10;100.00
3206;BME280;1615;53.602;11.418;2022-08-03T05:01:39;101083.75;;;22.19;100.00
3206;BME280;1615;53.602;11.418;2022-08-03T05:04:05;101086.88;;;22.33;100.00
3206;BME280;1615;53.602;11.418;2022-08-03T05:06:30;101078.66;;;22.40;100.00
3206;BME280;1615;53.602;11.418;2022-08-03T05:08:55;101082.06;;;22.49;100.00
3206;BME280;1615;53.602;11.418;2022-08-03T05:11:21;101034.53;;;22.30;100.00
3206;BME280;1615;53.602;11.418;2022-08-03T05:13:46;101084.53;;;22.69;100.00
3206;BME280;1615;53.602;11.418;2022-08-03T05:16:12;101077.69;;;22.86;100.00
3206;BME280;1615;53.602;11.418;2022-08-03T05:18:38;101078.88;;;22.85;100.00
3206;BME280;1615;53.602;11.418;2022-08-03T05:21:03;101075.03;;;22.93;100.00
3206;BME280;1615;53.602;11.418;2022-08-03T05:23:29;101071.94;;;22.98;100.00
3206;BME280;1615;53.602;11.418;2022-08-03T05:25:54;101075.63;;;23.02;100.00
3206;BME280;1615;53.602;11.418;2022-08-03T05:28:20;101079.44;;;23.13;100.00
3206;BME280;1615;53.602;11.418;2022-08-03T05:30:45;101079.75;;;23.27;100.00
3206;BME280;1615;53.602;11.418;2022-08-03T05:33:11;101069.25;;;23.43;100.00
3206;BME280;1615;53.602;11.418;2022-08-03T05:35:36;101079.44;;;23.54;100.00
3206;BME280;1615;53.602;11.418;2022-08-03T05:38:03;101074.69;;;23.77;100.00
3206;BME280;1615;53.602;11.418;2022-08-03T05:40:29;101074.31;;;23.79;100.00
3206;BME280;1615;53.602;11.418;2022-08-03T05:42:54;101072.22;;;23.95;100.00
3206;BME280;1615;53.602;11.418;2022-08-03T05:45:20;101070.50;;;24.13;100.00
3206;BME280;1615;53.602;11.418;2022-08-03T05:47:45;101077.47;;;24.26;100.00
3206;BME280;1615;53.602;11.418;2022-08-03T05:50:12;101078.81;;;24.32;100.00
3206;BME280;1615;53.602;11.418;2022-08-03T05:52:39;101070.56;;;24.46;100.00
3206;BME280;1615;53.602;11.418;2022-08-03T05:55:05;101077.13;;;24.57;100.00
3206;BME280;1615;53.602;11.418;2022-08-03T05:57:31;101022.59;;;24.51;100.00
3206;BME280;1615;53.602;11.418;2022-08-03T05:59:56;101071.88;;;24.81;100.00
3206;BME280;1615;53.602;11.418;2022-08-03T06:02:22;101055.47;;;24.80;100.00
3206;BME280;1615;53.602;11.418;2022-08-03T06:04:47;101061.72;;;24.99;100.00
3206;BME280;1615;53.602;11.418;2022-08-03T06:07:12;101071.34;;;25.02;100.00
3206;BME280;1615;53.602;11.418;2022-08-03T06:09:38;101064.59;;;25.06;100.00
3206;BME280;1615;53.602;11.418;2022-08-03T06:12:05;101057.50;;;25.19;100.00
3206;BME280;1615;53.602;11.418;2022-08-03T06:14:30;101002.25;;;24.87;100.00
3206;BME280;1615;53.602;11.418;2022-08-03T06:16:56;101074.91;;;25.32;100.00
3206;BME280;1615;53.602;11.418;2022-08-03T06:19:21;101068.19;;;25.40;100.00
3206;BME280;1615;53.602;11.418;2022-08-03T06:21:47;101035.66;;;25.35;100.00
3206;BME280;1615;53.602;11.418;2022-08-03T06:24:12;101071.34;;;25.75;100.00
3206;BME280;1615;53.602;11.418;2022-08-03T06:26:37;101064.06;;;25.70;100.00
3206;BME280;1615;53.602;11.418;2022-08-03T06:29:03;101065.66;;;25.68;100.00
3206;BME280;1615;53.602;11.418;2022-08-03T06:31:28;101043.91;;;25.58;100.00
3206;BME280;1615;53.602;11.418;2022-08-03T06:33:54;101065.72;;;25.78;100.00
3206;BME280;1615;53.602;11.418;2022-08-03T06:36:20;100998.03;;;25.43;100.00
3206;BME280;1615;53.602;11.418;2022-08-03T06:38:45;101073.16;;;25.97;100.00
3206;BME280;1615;53.602;11.418;2022-08-03T06:41:11;101074.34;;;25.96;100.00
3206;BME280;1615;53.602;11.418;2022-08-03T06:43:36;101062.75;;;26.01;100.00
3206;BME280;1615;53.602;11.418;2022-08-03T06:46:02;101031.44;;;25.99;100.00
3206;BME280;1615;53.602;11.418;2022-08-03T06:48:30;101072.66;;;26.38;100.00
3206;BME280;1615;53.602;11.418;2022-08-03T06:50:55;101017.00;;;26.04;100.00
3206;BME280;1615;53.602;11.418;2022-08-03T06:53:21;101059.59;;;26.09;100.00
3206;BME280;1615;53.602;11.418;2022-08-03T06:55:46;100987.78;;;25.65;100.00
3206;BME280;1615;53.602;11.418;2022-08-03T06:58:12;101024.94;;;25.91;100.00
3206;BME280;1615;53.602;11.418;2022-08-03T07:00:37;101082.72;;;26.43;100.00
3206;BME280;1615;53.602;11.418;2022-08-03T07:03:02;101083.19;;;26.52;100.00
3206;BME280;1615;53.602;11.418;2022-08-03T07:05:28;101080.03;;;26.57;100.00
3206;BME280;1615;53.602;11.418;2022-08-03T07:07:55;101029.16;;;26.22;100.00
3206;BME280;1615;53.602;11.418;2022-08-03T07:10:21;101079.19;;;26.53;100.00
3206;BME280;1615;53.602;11.418;2022-08-03T07:12:47;101029.16;;;26.18;100.00
3206;BME280;1615;53.602;11.418;2022-08-03T07:15:12;101086.94;;;26.70;100.00
3206;BME280;1615;53.602;11.418;2022-08-03T07:17:38;101081.72;;;26.72;100.00
3206;BME280;1615;53.602;11.418;2022-08-03T07:20:07;101086.19;;;26.80;100.00
3206;BME280;1615;53.602;11.418;2022-08-03T07:22:33;101078.06;;;26.64;100.00
3206;BME280;1615;53.602;11.418;2022-08-03T07:24:58;101070.44;;;26.68;100.00
3206;BME280;1615;53.602;11.418;2022-08-03T07:27:24;101087.88;;;26.98;100.00
3206;BME280;1615;53.602;11.418;2022-08-03T07:29:54;101093.94;;;27.04;100.00
3206;BME280;1615;53.602;11.418;2022-08-03T07:32:19;101082.69;;;27.11;100.00
3206;BME280;1615;53.602;11.418;2022-08-03T07:34:45;101085.97;;;27.20;100.00
3206;BME280;1615;53.602;11.418;2022-08-03T07:37:10;101085.19;;;27.30;100.00
3206;BME280;1615;53.602;11.418;2022-08-03T07:39:35;101089.25;;;27.39;100.00
3206;BME280;1615;53.602;11.418;2022-08-03T07:42:01;101085.22;;;27.44;100.00
3206;BME280;1615;53.602;11.418;2022-08-03T07:44:26;101028.78;;;27.09;100.00
3206;BME280;1615;53.602;11.418;2022-08-03T07:46:51;101053.84;;;27.42;100.00
3206;BME280;1615;53.602;11.418;2022-08-03T07:49:17;101075.59;;;27.66;100.00
3206;BME280;1615;53.602;11.418;2022-08-03T07:51:42;101083.25;;;27.76;100.00
3206;BME280;1615;53.602;11.418;2022-08-03T07:54:08;101076.84;;;27.89;99.93
3206;BME280;1615;53.602;11.418;2022-08-03T07:56:35;101082.91;;;28.02;100.00
3206;BME280;1615;53.602;11.418;2022-08-03T07:59:00;101016.84;;;27.71;100.00
3206;BME280;1615;53.602;11.418;2022-08-03T08:01:27;101076.84;;;28.14;100.00
3206;BME280;1615;53.602;11.418;2022-08-03T08:03:53;101073.59;;;28.19;100.00
3206;BME280;1615;53.602;11.418;2022-08-03T08:06:18;101072.38;;;28.20;100.00
3206;BME280;1615;53.602;11.418;2022-08-03T08:08:44;101071.97;;;28.25;100.00
3206;BME280;1615;53.602;11.418;2022-08-03T08:11:09;101061.13;;;28.27;96.38
3206;BME280;1615;53.602;11.418;2022-08-03T08:13:34;101016.03;;;28.06;98.45
3206;BME280;1615;53.602;11.418;2022-08-03T08:16:01;101075.59;;;28.50;95.71
3206;BME280;1615;53.602;11.418;2022-08-03T08:18:27;101066.31;;;28.60;92.29
3206;BME280;1615;53.602;11.418;2022-08-03T08:20:56;101065.88;;;28.65;93.30
3206;BME280;1615;53.602;11.418;2022-08-03T08:23:21;101054.63;;;28.61;94.20
3206;BME280;1615;53.602;11.418;2022-08-03T08:25:51;101067.84;;;28.71;93.41
3206;BME280;1615;53.602;11.418;2022-08-03T08:28:20;101058.56;;;28.78;92.57
3206;BME280;1615;53.602;11.418;2022-08-03T08:30:46;101073.47;;;28.82;92.54
3206;BME280;1615;53.602;11.418;2022-08-03T08:33:12;101046.03;;;28.82;92.65
3206;BME280;1615;53.602;11.418;2022-08-03T08:35:38;101021.13;;;28.67;96.72
3206;BME280;1615;53.602;11.418;2022-08-03T08:38:03;101053.28;;;28.87;93.22
3206;BME280;1615;53.602;11.418;2022-08-03T08:40:29;101007.78;;;28.71;93.69
3206;BME280;1615;53.602;11.418;2022-08-03T08:42:54;101053.59;;;29.10;87.78
3206;BME280;1615;53.602;11.418;2022-08-03T08:45:19;101055.50;;;29.30;89.27
3206;BME280;1615;53.602;11.418;2022-08-03T08:47:46;101051.78;;;29.47;89.81
3206;BME280;1615;53.602;11.418;2022-08-03T08:50:17;101051.34;;;29.49;84.33
3206;BME280;1615;53.602;11.418;2022-08-03T08:52:45;101055.81;;;29.43;84.57
3206;BME280;1615;53.602;11.418;2022-08-03T08:55:12;101004.38;;;29.11;89.72
3206;BME280;1615;53.602;11.418;2022-08-03T08:57:47;101040.09;;;29.42;90.75
3206;BME280;1615;53.602;11.418;2022-08-03T09:00:13;101063.03;;;29.58;85.72
3206;BME280;1615;53.602;11.418;2022-08-03T09:02:41;101059.06;;;29.45;88.21
3206;BME280;1615;53.602;11.418;2022-08-03T09:05:09;101058.22;;;29.48;87.37
3206;BME280;1615;53.602;11.418;2022-08-03T09:07:37;100999.44;;;29.29;86.33
3206;BME280;1615;53.602;11.418;2022-08-03T09:10:02;101053.31;;;29.59;87.98
3206;BME280;1615;53.602;11.418;2022-08-03T09:12:28;101025.59;;;29.40;86.80
3206;BME280;1615;53.602;11.418;2022-08-03T09:14:54;101007.47;;;29.34;85.13
3206;BME280;1615;53.602;11.418;2022-08-03T09:17:19;100988.03;;;29.39;86.83
3206;BME280;1615;53.602;11.418;2022-08-03T09:20:04;101041.84;;;29.80;85.46
3206;BME280;1615;53.602;11.418;2022-08-03T09:22:31;101049.84;;;29.92;83.66
3206;BME280;1615;53.602;11.418;2022-08-03T09:24:59;101049.91;;;29.81;81.91
3206;BME280;1615;53.602;11.418;2022-08-03T09:27:25;101045.34;;;29.94;82.43
3206;BME280;1615;53.602;11.418;2022-08-03T09:29:52;101044.56;;;29.94;82.97
3206;BME280;1615;53.602;11.418;2022-08-03T09:32:23;101049.31;;;30.04;82.04
3206;BME280;1615;53.602;11.418;2022-08-03T09:34:50;101045.22;;;30.12;82.75
3206;BME280;1615;53.602;11.418;2022-08-03T09:37:17;101048.69;;;30.30;80.67
3206;BME280;1615;53.602;11.418;2022-08-03T09:39:43;101045.47;;;30.28;80.48
3206;BME280;1615;53.602;11.418;2022-08-03T09:44:37;101044.41;;;30.52;78.14
3206;BME280;1615;53.602;11.418;2022-08-03T09:47:04;101044.84;;;30.47;81.70
3206;BME280;1615;53.602;11.418;2022-08-03T09:49:30;101035.13;;;30.48;82.01
3206;BME280;1615;53.602;11.418;2022-08-03T09:51:56;101031.47;;;30.51;79.40
3206;BME280;1615;53.602;11.418;2022-08-03T09:54:26;101037.97;;;30.48;80.64
3206;BME280;1615;53.602;11.418;2022-08-03T09:56:52;101031.88;;;30.49;80.76
3206;BME280;1615;53.602;11.418;2022-08-03T09:59:28;101032.25;;;30.51;78.28
3206;BME280;1615;53.602;11.418;2022-08-03T10:01:55;101035.44;;;30.57;82.83
3206;BME280;1615;53.602;11.418;2022-08-03T10:04:20;100914.88;;;29.92;78.35
3206;BME280;1615;53.602;11.418;2022-08-03T10:07:02;101022.72;;;30.75;76.62
3206;BME280;1615;53.602;11.418;2022-08-03T10:09:28;101030.47;;;30.68;77.37
3206;BME280;1615;53.602;11.418;2022-08-03T10:11:53;101034.22;;;30.58;79.65
3206;BME280;1615;53.602;11.418;2022-08-03T10:14:19;100923.00;;;29.90;79.68
3206;BME280;1615;53.602;11.418;2022-08-03T10:16:46;101025.81;;;30.47;78.29
3206;BME280;1615;53.602;11.418;2022-08-03T10:19:12;101016.13;;;30.48;80.19
3206;BME280;1615;53.602;11.418;2022-08-03T10:21:41;101025.50;;;30.79;77.97
3206;BME280;1615;53.602;11.418;2022-08-03T10:24:11;100981.44;;;30.41;74.07
3206;BME280;1615;53.602;11.418;2022-08-03T10:26:40;101022.44;;;30.63;77.21
3206;BME280;1615;53.602;11.418;2022-08-03T10:29:11;101015.09;;;30.69;78.79
3206;BME280;1615;53.602;11.418;2022-08-03T10:31:44;101019.97;;;30.65;78.47
3206;BME280;1615;53.602;11.418;2022-08-03T10:34:18;101016.13;;;30.48;77.86
3206;BME280;1615;53.602;11.418;2022-08-03T10:36:48;100919.03;;;29.81;79.27
3206;BME280;1615;53.602;11.418;2022-08-03T10:39:17;101001.53;;;30.50;78.50
3206;BME280;1615;53.602;11.418;2022-08-03T10:41:43;101010.94;;;30.77;75.21
3206;BME280;1615;53.602;11.418;2022-08-03T10:44:18;101008.91;;;30.77;76.51
3206;BME280;1615;53.602;11.418;2022-08-03T10:46:46;101005.78;;;30.72;76.39
3206;BME280;1615;53.602;11.418;2022-08-03T10:49:13;101003.50;;;30.90;73.76
3206;BME280;1615;53.602;11.418;2022-08-03T10:51:41;101007.09;;;30.94;77.89
3206;BME280;1615;53.602;11.418;2022-08-03T10:54:07;101011.50;;;30.95;71.88
3206;BME280;1615;53.602;11.418;2022-08-03T10:56:52;101000.84;;;30.76;70.30
3206;BME280;1615;53.602;11.418;2022-08-03T11:02:13;101013.75;;;30.77;78.41
3206;BME280;1615;53.602;11.418;2022-08-03T11:04:40;101014.72;;;30.97;78.87
3206;BME280;1615;53.602;11.418;2022-08-03T11:09:42;101009.44;;;30.99;78.70
3206;BME280;1615;53.602;11.418;2022-08-03T11:12:30;101011.22;;;31.16;73.67
3206;BME280;1615;53.602;11.418;2022-08-03T11:14:58;100994.56;;;31.18;74.61
3206;BME280;1615;53.602;11.418;2022-08-03T11:17:24;101003.00;;;31.25;74.58
3206;BME280;1615;53.602;11.418;2022-08-03T11:19:51;101001.06;;;31.45;72.10
3206;BME280;1615;53.602;11.418;2022-08-03T11:22:18;101000.91;;;31.29;73.46
3206;BME280;1615;53.602;11.418;2022-08-03T11:27:34;101000.56;;;31.27;71.99
3206;BME280;1615;53.602;11.418;2022-08-03T11:35:11;101002.78;;;31.39;70.90
3206;BME280;1615;53.602;11.418;2022-08-03T11:40:47;100987.28;;;31.47;69.83
3206;BME280;1615;53.602;11.418;2022-08-03T11:51:00;100991.31;;;31.46;75.01
3206;BME280;1615;53.602;11.418;2022-08-03T11:53:28;100991.31;;;31.46;70.11
3206;BME280;1615;53.602;11.418;2022-08-03T11:55:58;100987.38;;;31.40;69.78
3206;BME280;1615;53.602;11.418;2022-08-03T11:58:24;100950.47;;;31.17;70.96
3206;BME280;1615;53.602;11.418;2022-08-03T12:00:50;100942.03;;;31.13;71.97
3206;BME280;1615;53.602;11.418;2022-08-03T12:03:18;100998.34;;;31.38;73.24
3206;BME280;1615;53.602;11.418;2022-08-03T12:05:50;100992.88;;;31.50;73.25
3206;BME280;1615;53.602;11.418;2022-08-03T12:10:51;100984.09;;;31.68;71.39
3206;BME280;1615;53.602;11.418;2022-08-03T12:13:18;100925.69;;;31.47;71.34
3206;BME280;1615;53.602;11.418;2022-08-03T12:15:50;100988.97;;;31.90;69.40
3206;BME280;1615;53.602;11.418;2022-08-03T12:18:17;100982.63;;;31.83;65.38
3206;BME280;1615;53.602;11.418;2022-08-03T12:20:44;100981.16;;;31.75;67.54
3206;BME280;1615;53.602;11.418;2022-08-03T12:23:10;100881.22;;;30.95;68.10
3206;BME280;1615;53.602;11.418;2022-08-03T12:25:37;100977.53;;;31.48;68.39
3206;BME280;1615;53.602;11.418;2022-08-03T12:28:18;100981.22;;;31.45;71.86
3206;BME280;1615;53.602;11.418;2022-08-03T12:30:47;100975.13;;;31.46;69.88
3206;BME280;1615;53.602;11.418;2022-08-03T12:33:24;100985.44;;;31.60;71.96
3206;BME280;1615;53.602;11.418;2022-08-03T12:36:10;100973.06;;;31.73;71.44
3206;BME280;1615;53.602;11.418;2022-08-03T12:38:37;100965.09;;;31.88;68.44
3206;BME280;1615;53.602;11.418;2022-08-03T12:43:28;100920.59;;;31.85;72.49
3206;BME280;1615;53.602;11.418;2022-08-03T12:46:10;100967.16;;;32.30;70.48
3206;BME280;1615;53.602;11.418;2022-08-03T12:54:06;100970.88;;;32.27;68.65
3206;BME280;1615;53.602;11.418;2022-08-03T12:56:33;100972.63;;;32.40;68.40
3206;BME280;1615;53.602;11.418;2022-08-03T12:58:58;100967.38;;;32.39;64.99
3206;BME280;1615;53.602;11.418;2022-08-03T13:01:35;100969.66;;;32.28;68.01
3206;BME280;1615;53.602;11.418;2022-08-03T13:04:01;100954.59;;;32.08;69.69
3206;BME280;1615;53.602;11.418;2022-08-03T13:06:26;100967.69;;;32.02;73.15
3206;BME280;1615;53.602;11.418;2022-08-03T13:09:03;100960.16;;;31.92;70.92
3206;BME280;1615;53.602;11.418;2022-08-03T13:11:29;100896.66;;;31.40;68.53
3206;BME280;1615;53.602;11.418;2022-08-03T13:13:55;100957.78;;;32.10;68.41
3206;BME280;1615;53.602;11.418;2022-08-03T13:16:21;100957.50;;;32.04;67.17
3206;BME280;1615;53.602;11.418;2022-08-03T13:18:47;100926.47;;;31.94;65.63
3206;BME280;1615;53.602;11.418;2022-08-03T13:21:14;100871.19;;;31.59;66.69
3206;BME280;1615;53.602;11.418;2022-08-03T13:23:41;100964.44;;;32.23;68.10
3206;BME280;1615;53.602;11.418;2022-08-03T13:26:07;100950.91;;;32.11;64.53
3206;BME280;1615;53.602;11.418;2022-08-03T13:28:33;100912.19;;;31.78;66.13
3206;BME280;1615;53.602;11.418;2022-08-03T13:30:58;100959.53;;;32.04;69.73
3206;BME280;1615;53.602;11.418;2022-08-03T13:33:25;100897.25;;;31.97;65.75
3206;BME280;1615;53.602;11.418;2022-08-03T13:35:51;100950.59;;;32.48;65.01
3206;BME280;1615;53.602;11.418;2022-08-03T13:38:16;100943.16;;;32.54;64.51
3206;BME280;1615;53.602;11.418;2022-08-03T13:40:41;100937.81;;;32.56;62.99
3206;BME280;1615;53.602;11.418;2022-08-03T13:43:07;100949.53;;;32.58;64.29
3206;BME280;1615;53.602;11.418;2022-08-03T13:45:32;100936.44;;;32.64;62.68
3206;BME280;1615;53.602;11.418;2022-08-03T13:47:57;100941.31;;;32.63;60.83